Chepstow, United Kingdom
Current Conditions -  °F | °C
As of 3:20 AM on Tuesday 21 Oct 2014 (Local Time) from EGGD Reporting Station
Moderate Rain Moderate Rain  
Wind Chill: 11°   Ceiling: 600
Heat Index: 11°   Visibility: 2.3mi
Dew Point: 10°   Wind: 16mph
Humidity: 94%   Direction: 210°SSW
Pressure: 29.71"   Gusts: NA
Location:  51.64°N, 2.68°W
Report Text: EGGD 210220Z 21014KT 3800 RA BKN006 OVC016 11/10 Q1006
Loading
Personal Weather Stations






























Interactive Weather Map
Tropical Storm Tracking
New forecast layout! Learn more

10-Day Weather Forecast

Advertisements
Track Severe Weather on mobile